Thailine 5 — 9WFF5 — position and weather

sailwx.info

Track history (hours):
 
Tides and Currents Weather Stations Pressure Air Temp Water Temp Dewpoint Dewpoint Depression Visibility Wind Speed Wind Dir Waves Ship Positions

Thailine 5

Last reported at 2015-May-30 07:11 UTC. Time now 2015-May-30 10:37 UTC.
Position N 34°46' E 139°50'.

Length 98 m; draft 6.5 m.

Type: Cargo ship. MMSI: 533399000.

Date/timePositionNaut miles runAvg speedWind from/ knotsBaromVisibWave heightAir tempDewpointWater temp
2015-May-30 07:11N 34°46' E 139°50'5 0.7
2015-May-29 23:07N 34°46' E 139°57'5 1.7
2015-May-29 20:08N 34°49' E 140°01'6 2.0
2015-May-29 17:07N 34°53' E 140°06'1 1.9
2015-May-29 16:33N 34°54' E 140°07'2 1.9
2015-May-29 15:31N 34°55' E 140°09'2 1.9
2015-May-29 14:34N 34°56' E 140°11'2 2.0
2015-May-29 13:34N 34°57' E 140°14'3 2.9
2015-May-29 12:32N 34°58' E 140°11'3 3.2
2015-May-29 11:30N 35°00' E 140°08'1 1.3
2015-May-29 10:34N 34°60' E 140°09'1 1.4
2015-May-29 09:31N 34°60' E 140°11'1 1.5
2015-May-29 08:33N 34°59' E 140°12'6 5.9
2015-May-29 07:33N 34°56' E 140°06'8 7.1
2015-May-29 06:25N 34°52' E 139°58'8 6.3
2015-May-29 05:12N 34°50' E 139°49'5 7.0
2015-May-29 04:33N 34°48' E 139°43'2 0.3
2015-May-28 21:23N 34°47' E 139°41'1 1.6
2015-May-28 20:33N 34°47' E 139°43'2 1.8
2015-May-28 19:18N 34°48' E 139°46'2 1.7
2015-May-28 18:18N 34°48' E 139°48'11 1.6
2015-May-28 11:32N 34°50' E 140°01'3 1.3
2015-May-28 09:16N 34°50' E 140°04'1 1.3
2015-May-28 08:33N 34°50' E 140°05'1 0.8
2015-May-28 07:33N 34°49' E 140°06'27 8.6
2015-May-28 04:23N 34°40' E 139°34'6 0.8
2015-May-27 21:20N 34°37' E 139°41'1 1.4
2015-May-27 20:27N 34°38' E 139°42'2 1.5
2015-May-27 19:21N 34°38' E 139°44'2 1.3
2015-May-27 18:05N 34°39' E 139°46'1 1.1
2015-May-27 17:33N 34°40' E 139°47'2 1.2
2015-May-27 16:06N 34°40' E 139°49'2 0.9
2015-May-27 14:23N 34°41' E 139°50'1 0.9
2015-May-27 13:32N 34°41' E 139°51'1 1.0
2015-May-27 12:33N 34°41' E 139°52'1 1.2
2015-May-27 11:30N 34°42' E 139°54'1 1.1
2015-May-27 10:32N 34°42' E 139°55'1 0.9
2015-May-27 09:03N 34°42' E 139°57'14 4.9
2015-May-27 06:17N 34°50' E 139°42'1 0.4
2015-May-27 03:18N 34°49' E 139°41'1 1.2
2015-May-27 02:32N 34°49' E 139°42'1 0.7
2015-May-27 01:13N 34°49' E 139°43'0 0.6
2015-May-27 00:19N 34°48' E 139°44'0 0.5
2015-May-26 23:33N 34°48' E 139°44'1 0.8
2015-May-26 22:31N 34°48' E 139°45'1 0.8
2015-May-26 21:27N 34°48' E 139°46'1 0.6
2015-May-26 20:33N 34°48' E 139°47'1 0.6
2015-May-26 19:33N 34°47' E 139°47'1 0.5
2015-May-26 18:28N 34°47' E 139°47'1 0.8
2015-May-26 17:29N 34°46' E 139°48'2 0.8
2015-May-26 15:32N 34°45' E 139°49'1 0.9
2015-May-26 14:32N 34°44' E 139°50'3 1.4
2015-May-26 12:33N 34°47' E 139°50'1 0.7
2015-May-26 10:23N 34°47' E 139°52'4 1.2
2015-May-26 07:22N 34°46' E 139°57'17 0.7
2015-May-25 07:07N 34°39' E 139°38'8 1.3
2015-May-25 01:22N 34°38' E 139°46'10 2.6
2015-May-24 21:29N 34°42' E 139°36'1 0.5
2015-May-24 19:33N 34°42' E 139°37'1 0.7
2015-May-24 18:18N 34°42' E 139°38'1 0.8
2015-May-24 17:25N 34°42' E 139°39'1 0.7
2015-May-24 16:29N 34°43' E 139°39'1 0.6
2015-May-24 15:32N 34°43' E 139°40'1 0.6
2015-May-24 14:23N 34°43' E 139°41'3 1.7
2015-May-24 12:30N 34°44' E 139°45'1110.1
2015-May-24 11:25N 34°49' E 139°57'6 4.9
2015-May-24 10:14N 34°52' E 140°02'1 0.7
2015-May-24 09:25N 34°52' E 140°03'1 0.6
2015-May-24 08:29N 34°52' E 140°04'1 0.7
2015-May-24 07:27N 34°52' E 140°05'1 0.7
2015-May-24 06:27N 34°52' E 140°06'1 0.7
2015-May-24 05:16N 34°51' E 140°06'2 0.3
2015-May-23 23:25N 34°50' E 140°06'0 0.4
2015-May-23 22:32N 34°50' E 140°06'1 0.6
2015-May-23 21:30N 34°50' E 140°05'3 0.9
2015-May-23 17:28N 34°48' E 140°01'4 0.8
2015-May-23 12:22N 34°47' E 139°57'8 0.6
2015-May-22 22:10N 34°47' E 139°47'7 0.7
2015-May-22 12:33N 34°43' E 139°39'10 9.3
2015-May-22 11:29N 34°53' E 139°40'9 8.9
2015-May-22 10:31N 35°02' E 139°42'9 8.8
2015-May-22 09:32N 35°10' E 139°45'7 7.4
2015-May-22 08:33N 35°17' E 139°45'7 7.3
2015-May-22 07:34N 35°24' E 139°43'3 3.0
2015-May-22 06:33N 35°27' E 139°40'0 0.0
2015-May-22 05:33N 35°27' E 139°40'0 0.0
2015-May-22 04:33N 35°27' E 139°40'0 0.0
2015-May-22 03:33N 35°27' E 139°40'0 0.0
2015-May-22 02:33N 35°27' E 139°40'0 0.0
2015-May-22 01:33N 35°27' E 139°40'0 0.0
2015-May-22 00:33N 35°27' E 139°40'0 0.0
2015-May-21 23:33N 35°27' E 139°40'0 0.0
2015-May-21 22:33N 35°27' E 139°40'0 0.0
2015-May-21 21:33N 35°27' E 139°40'0 0.0
2015-May-21 20:33N 35°27' E 139°40'0 0.0
2015-May-21 19:33N 35°27' E 139°40'0 0.0
2015-May-21 18:33N 35°27' E 139°40'0 0.0
2015-May-21 17:33N 35°27' E 139°40'0 0.0
2015-May-21 16:33N 35°27' E 139°40'0 0.0
2015-May-21 15:33N 35°27' E 139°40'0 0.0
2015-May-21 14:33N 35°27' E 139°40'0 0.0
2015-May-21 13:33N 35°27' E 139°40'0 0.0
2015-May-21 12:33N 35°27' E 139°40'0 0.0
2015-May-21 11:33N 35°27' E 139°40'0 0.0
2015-May-21 10:33N 35°27' E 139°40'0 0.0
2015-May-21 09:33N 35°27' E 139°40'0 0.0
2015-May-21 08:33N 35°27' E 139°40'0 0.0
2015-May-21 07:33N 35°27' E 139°40'0 0.0
2015-May-21 06:33N 35°27' E 139°40'0 0.0
2015-May-21 05:33N 35°27' E 139°40'0 0.0
2015-May-21 04:33N 35°27' E 139°40'0 0.0
2015-May-21 03:33N 35°27' E 139°40'0 0.0
2015-May-21 02:33N 35°27' E 139°40'0 0.0
2015-May-21 01:33N 35°27' E 139°40'0 0.0
2015-May-21 00:33N 35°27' E 139°40'0 0.0
2015-May-20 23:33N 35°27' E 139°40'0 0.0
2015-May-20 22:33N 35°27' E 139°40'2 1.5
2015-May-20 21:34N 35°25' E 139°42'0 0.0
2015-May-20 20:33N 35°25' E 139°42'0 0.0
2015-May-20 19:33N 35°25' E 139°42'0 0.0
2015-May-20 18:33N 35°25' E 139°42'0 0.0
2015-May-20 17:31N 35°25' E 139°42'0 0.2
2015-May-20 16:31N 35°26' E 139°42'0 0.0
2015-May-20 15:31N 35°26' E 139°42'0 0.0
2015-May-20 14:31N 35°26' E 139°42'0 0.0
2015-May-20 13:31N 35°26' E 139°42'0 0.1
2015-May-20 12:31N 35°25' E 139°42'0 0.0
2015-May-20 11:31N 35°25' E 139°42'0 0.0
2015-May-20 10:28N 35°25' E 139°42'0 0.0
2015-May-20 09:31N 35°25' E 139°42'0 0.1
2015-May-20 08:31N 35°26' E 139°42'0 0.0
2015-May-20 07:32N 35°26' E 139°42'  
Track history (hours):
 
Tides and Currents Weather Stations Pressure Air Temp Water Temp Dewpoint Dewpoint Depression Visibility Wind Speed Wind Dir Waves Ship Positions

Thailine 5

Last reported at 2015-May-30 07:11 UTC. Time now 2015-May-30 10:37 UTC.
Position N 34°46' E 139°50'.

Length 98 m; draft 6.5 m.

Type: Cargo ship. MMSI: 533399000.

Date/timePositionNaut miles runAvg speedWind from/ knotsBaromVisibWave heightAir tempDewpointWater temp
2015-May-30 07:11N 34°46' E 139°50'5 0.7
2015-May-29 23:07N 34°46' E 139°57'5 1.7
2015-May-29 20:08N 34°49' E 140°01'6 2.0
2015-May-29 17:07N 34°53' E 140°06'1 1.9
2015-May-29 16:33N 34°54' E 140°07'2 1.9
2015-May-29 15:31N 34°55' E 140°09'2 1.9
2015-May-29 14:34N 34°56' E 140°11'2 2.0
2015-May-29 13:34N 34°57' E 140°14'3 2.9
2015-May-29 12:32N 34°58' E 140°11'3 3.2
2015-May-29 11:30N 35°00' E 140°08'1 1.3
2015-May-29 10:34N 34°60' E 140°09'1 1.4
2015-May-29 09:31N 34°60' E 140°11'1 1.5
2015-May-29 08:33N 34°59' E 140°12'6 5.9
2015-May-29 07:33N 34°56' E 140°06'8 7.1
2015-May-29 06:25N 34°52' E 139°58'8 6.3
2015-May-29 05:12N 34°50' E 139°49'5 7.0
2015-May-29 04:33N 34°48' E 139°43'2 0.3
2015-May-28 21:23N 34°47' E 139°41'1 1.6
2015-May-28 20:33N 34°47' E 139°43'2 1.8
2015-May-28 19:18N 34°48' E 139°46'2 1.7
2015-May-28 18:18N 34°48' E 139°48'11 1.6
2015-May-28 11:32N 34°50' E 140°01'3 1.3
2015-May-28 09:16N 34°50' E 140°04'1 1.3
2015-May-28 08:33N 34°50' E 140°05'1 0.8
2015-May-28 07:33N 34°49' E 140°06'27 8.6
2015-May-28 04:23N 34°40' E 139°34'6 0.8
2015-May-27 21:20N 34°37' E 139°41'1 1.4
2015-May-27 20:27N 34°38' E 139°42'2 1.5
2015-May-27 19:21N 34°38' E 139°44'2 1.3
2015-May-27 18:05N 34°39' E 139°46'1 1.1
2015-May-27 17:33N 34°40' E 139°47'2 1.2
2015-May-27 16:06N 34°40' E 139°49'2 0.9
2015-May-27 14:23N 34°41' E 139°50'1 0.9
2015-May-27 13:32N 34°41' E 139°51'1 1.0
2015-May-27 12:33N 34°41' E 139°52'1 1.2
2015-May-27 11:30N 34°42' E 139°54'1 1.1
2015-May-27 10:32N 34°42' E 139°55'1 0.9
2015-May-27 09:03N 34°42' E 139°57'14 4.9
2015-May-27 06:17N 34°50' E 139°42'1 0.4
2015-May-27 03:18N 34°49' E 139°41'1 1.2
2015-May-27 02:32N 34°49' E 139°42'1 0.7
2015-May-27 01:13N 34°49' E 139°43'0 0.6
2015-May-27 00:19N 34°48' E 139°44'0 0.5
2015-May-26 23:33N 34°48' E 139°44'1 0.8
2015-May-26 22:31N 34°48' E 139°45'1 0.8
2015-May-26 21:27N 34°48' E 139°46'1 0.6
2015-May-26 20:33N 34°48' E 139°47'1 0.6
2015-May-26 19:33N 34°47' E 139°47'1 0.5
2015-May-26 18:28N 34°47' E 139°47'1 0.8
2015-May-26 17:29N 34°46' E 139°48'2 0.8
2015-May-26 15:32N 34°45' E 139°49'1 0.9
2015-May-26 14:32N 34°44' E 139°50'3 1.4
2015-May-26 12:33N 34°47' E 139°50'1 0.7
2015-May-26 10:23N 34°47' E 139°52'4 1.2
2015-May-26 07:22N 34°46' E 139°57'17 0.7
2015-May-25 07:07N 34°39' E 139°38'8 1.3
2015-May-25 01:22N 34°38' E 139°46'10 2.6
2015-May-24 21:29N 34°42' E 139°36'1 0.5
2015-May-24 19:33N 34°42' E 139°37'1 0.7
2015-May-24 18:18N 34°42' E 139°38'1 0.8
2015-May-24 17:25N 34°42' E 139°39'1 0.7
2015-May-24 16:29N 34°43' E 139°39'1 0.6
2015-May-24 15:32N 34°43' E 139°40'1 0.6
2015-May-24 14:23N 34°43' E 139°41'3 1.7
2015-May-24 12:30N 34°44' E 139°45'1110.1
2015-May-24 11:25N 34°49' E 139°57'6 4.9
2015-May-24 10:14N 34°52' E 140°02'1 0.7
2015-May-24 09:25N 34°52' E 140°03'1 0.6
2015-May-24 08:29N 34°52' E 140°04'1 0.7
2015-May-24 07:27N 34°52' E 140°05'1 0.7
2015-May-24 06:27N 34°52' E 140°06'1 0.7
2015-May-24 05:16N 34°51' E 140°06'2 0.3
2015-May-23 23:25N 34°50' E 140°06'0 0.4
2015-May-23 22:32N 34°50' E 140°06'1 0.6
2015-May-23 21:30N 34°50' E 140°05'3 0.9
2015-May-23 17:28N 34°48' E 140°01'4 0.8
2015-May-23 12:22N 34°47' E 139°57'8 0.6
2015-May-22 22:10N 34°47' E 139°47'7 0.7
2015-May-22 12:33N 34°43' E 139°39'10 9.3
2015-May-22 11:29N 34°53' E 139°40'9 8.9
2015-May-22 10:31N 35°02' E 139°42'9 8.8
2015-May-22 09:32N 35°10' E 139°45'7 7.4
2015-May-22 08:33N 35°17' E 139°45'7 7.3
2015-May-22 07:34N 35°24' E 139°43'3 3.0
2015-May-22 06:33N 35°27' E 139°40'0 0.0
2015-May-22 05:33N 35°27' E 139°40'0 0.0
2015-May-22 04:33N 35°27' E 139°40'0 0.0
2015-May-22 03:33N 35°27' E 139°40'0 0.0
2015-May-22 02:33N 35°27' E 139°40'0 0.0
2015-May-22 01:33N 35°27' E 139°40'0 0.0
2015-May-22 00:33N 35°27' E 139°40'0 0.0
2015-May-21 23:33N 35°27' E 139°40'0 0.0
2015-May-21 22:33N 35°27' E 139°40'0 0.0
2015-May-21 21:33N 35°27' E 139°40'0 0.0
2015-May-21 20:33N 35°27' E 139°40'0 0.0
2015-May-21 19:33N 35°27' E 139°40'0 0.0
2015-May-21 18:33N 35°27' E 139°40'0 0.0
2015-May-21 17:33N 35°27' E 139°40'0 0.0
2015-May-21 16:33N 35°27' E 139°40'0 0.0
2015-May-21 15:33N 35°27' E 139°40'0 0.0
2015-May-21 14:33N 35°27' E 139°40'0 0.0
2015-May-21 13:33N 35°27' E 139°40'0 0.0
2015-May-21 12:33N 35°27' E 139°40'0 0.0
2015-May-21 11:33N 35°27' E 139°40'0 0.0
2015-May-21 10:33N 35°27' E 139°40'0 0.0
2015-May-21 09:33N 35°27' E 139°40'0 0.0
2015-May-21 08:33N 35°27' E 139°40'0 0.0
2015-May-21 07:33N 35°27' E 139°40'0 0.0
2015-May-21 06:33N 35°27' E 139°40'0 0.0
2015-May-21 05:33N 35°27' E 139°40'0 0.0
2015-May-21 04:33N 35°27' E 139°40'0 0.0
2015-May-21 03:33N 35°27' E 139°40'0 0.0
2015-May-21 02:33N 35°27' E 139°40'0 0.0
2015-May-21 01:33N 35°27' E 139°40'0 0.0
2015-May-21 00:33N 35°27' E 139°40'0 0.0
2015-May-20 23:33N 35°27' E 139°40'0 0.0
2015-May-20 22:33N 35°27' E 139°40'2 1.5
2015-May-20 21:34N 35°25' E 139°42'0 0.0
2015-May-20 20:33N 35°25' E 139°42'0 0.0
2015-May-20 19:33N 35°25' E 139°42'0 0.0
2015-May-20 18:33N 35°25' E 139°42'0 0.0
2015-May-20 17:31N 35°25' E 139°42'0 0.2
2015-May-20 16:31N 35°26' E 139°42'0 0.0
2015-May-20 15:31N 35°26' E 139°42'0 0.0
2015-May-20 14:31N 35°26' E 139°42'0 0.0
2015-May-20 13:31N 35°26' E 139°42'0 0.1
2015-May-20 12:31N 35°25' E 139°42'0 0.0
2015-May-20 11:31N 35°25' E 139°42'0 0.0
2015-May-20 10:28N 35°25' E 139°42'0 0.0
2015-May-20 09:31N 35°25' E 139°42'0 0.1
2015-May-20 08:31N 35°26' E 139°42'0 0.0
2015-May-20 07:32N 35°26' E 139°42'  

Dump ship's entire track history